KMER/MER METAR and TAF weather

Enter ICAO airport designator
Station Type Date Time Source
KMER METAR 2020/10/20 17:45 UTC NOAA

KMER 201745Z 00000KT 7SM CLR 24/08 A2992 HZ


Station Type Date Time Source
KMER Decoded METAR 2020/10/20 17:45 UTC NOAA

Merced / Castle Air Force Base, CA, United States (KMER) 37-22N 120-34W 60M
Oct 20, 2020 - 01:45 PM EDT / 2020.10.20 1745 UTC
Wind: Calm:0
Visibility: 7 mile(s):0
Sky conditions: clear
Temperature: 75 F (24 C)
Dew Point: 46 F (8 C)
Relative Humidity: 35%
Pressure (altimeter): 29.92 in. Hg (1013 hPa)
ob: KMER 201745Z 00000KT 7SM CLR 24/08 A2992 HZ
cycle: 18

Station Type Date Time Source
KMER TAF 2020/10/20 18:25 UTC NOAA

TAF KMER 201720Z 2018/2118 VRB04KT P6SM SKC

Example: see airport list